• Join FlightAware (Why Join?)
  • Login
  • US Flag 
11:51AM EST


 

Airport Tracker/Info


-or-


 

Live Flight TrackerFlight Track Log ✈ N525LM ✈ 20-Feb-2014 ✈ KCSG - KMKC

Flight Track Log - Related Links

Times and Time Zones

All times are in EST time to prevent confusion due to time zone crossing. See the N525LM flight status page for this flight to view local times or setup timezone preferences in your user account.

Time Position Orientation Groundspeed Altitude Reporting Facility
EST Latitude Longitude Course Direction KTS MPH feet Rate Location/Type
04:21PM 32.5000 -84.9667 220° Southwest 159 183 1,500  Level Atlanta TRACON
04:22PM 32.4667 -85.0000 220° Southwest 171 197 3,500 2,211 Climbing Atlanta TRACON
04:24PM 32.5181 -85.1522 292° West 209 241 9,200 2,182 Climbing Atlanta Center
04:25PM 32.5592 -85.2094 310° West 225 259 11,100 1,850 Climbing Atlanta Center
04:26PM 32.6003 -85.2742 307° West 235 270 12,900 1,750 Climbing Atlanta Center
04:27PM 32.6394 -85.3364 307° West 235 270 14,600 1,700 Climbing Atlanta Center
04:28PM 32.6825 -85.3986 309° West 240 276 16,300 1,600 Climbing Atlanta Center
04:29PM 32.7256 -85.4661 307° West 246 283 17,800 1,550 Climbing Atlanta Center
04:30PM 32.7708 -85.5333 309° West 251 289 19,400 1,450 Climbing Atlanta Center
04:31PM 32.8158 -85.6033 307° West 256 295 20,700 1,300 Climbing Atlanta Center
04:32PM 32.8631 -85.6711 310° West 256 295 22,000 1,250 Climbing Atlanta Center
04:33PM 32.9100 -85.7461 307° West 264 304 23,200 1,250 Climbing Atlanta Center
04:34PM 32.9550 -85.8164 307° West 270 311 24,500 1,200 Climbing Atlanta Center
04:35PM 33.0058 -85.8942 308° West 277 319 25,600 1,100 Climbing Atlanta Center
04:36PM 33.0528 -85.9669 308° West 282 325 26,700 1,150 Climbing Atlanta Center
04:37PM 33.0997 -86.0375 308° West 277 319 27,900 1,100 Climbing Atlanta Center
04:38PM 33.1444 -86.1106 306° West 277 319 28,900 850 Climbing Atlanta Center
04:39PM 33.1914 -86.1786 310° West 272 313 29,600 750 Climbing Atlanta Center
04:40PM 33.2358 -86.2517 306° West 272 313 30,400 850 Climbing Atlanta Center
04:41PM 33.2825 -86.3250 307° West 277 319 31,300 750 Climbing Atlanta Center
04:42PM 33.3292 -86.4033 306° West 277 319 31,900 800 Climbing Atlanta Center
04:43PM 33.3758 -86.4717 309° West 272 313 32,900 950 Climbing Atlanta Center
04:44PM 33.4203 -86.5450 306° West 272 313 33,800 650 Climbing Atlanta Center
04:45PM 33.4567 -86.5983 309° West 362 417 34,200 650 Climbing Atlanta Center
04:46PM 33.5072 -86.6772 308° West 311 358 35,100 750 Climbing Atlanta Center
04:47PM 33.5494 -86.7483 305° West 275 316 35,700 450 Climbing Atlanta Center
04:48PM 33.5939 -86.8169 308° West 264 304 36,000 150 Climbing Atlanta Center
04:49PM 33.6422 -86.8933 307° West 276 318 36,000  Level Atlanta Center
04:50PM 33.6925 -86.9725 307° West 286 329 36,000  Level Atlanta Center
04:51PM 33.7428 -87.0517 307° West 297 342 36,000 648 Level Atlanta Center
04:53PM 33.8369 -87.2028 307° West 284 327 37,900 674 Climbing Memphis Center
04:54PM 33.8797 -87.2719 307° West 263 303 38,000 48 Climbing Memphis Center
04:55PM 33.9247 -87.3439 307° West 264 304 38,000  Level Memphis Center
04:56PM 33.9814 -87.4344 307° West 273 314 38,000  Level Memphis Center
04:57PM 34.0297 -87.5122 307° West 284 327 38,000  Level Memphis Center
04:58PM 34.0778 -87.5914 306° West 291 335 38,000  Level Memphis Center
05:00PM 34.1278 -87.6728 307° West 297 342 38,000  Level Memphis Center
05:01PM 34.1781 -87.7536 307° West 299 344 38,000 145 Level Memphis Center
05:02PM 34.2286 -87.8344 307° West 300 345 38,300 532 Climbing Memphis Center
05:03PM 34.2753 -87.9100 307° West 287 330 39,100 823 Climbing Memphis Center
05:04PM 34.3242 -87.9906 306° West 255 293 40,000 435 Climbing Memphis Center
05:05PM 34.3656 -88.0592 306° West 249 287 40,000  Level Memphis Center
05:06PM 34.4094 -88.1303 307° West 259 298 40,000  Level Memphis Center
05:07PM 34.4544 -88.2031 307° West 266 306 40,000  Level Memphis Center
05:08PM 34.4986 -88.2772 306° West 270 311 40,000  Level Memphis Center
05:09PM 34.5442 -88.3514 307° West 272 313 40,000  Level Memphis Center
05:10PM 34.5894 -88.4264 306° West 275 316 40,000  Level Memphis Center
05:11PM 34.6453 -88.5169 307° West 278 320 40,000  Level Memphis Center
05:12PM 34.6914 -88.5933 306° West 279 321 40,000  Level Memphis Center
05:13PM 34.7378 -88.6714 306° West 284 327 40,000  Level Memphis Center
05:14PM 34.7844 -88.7483 306° West 284 327 40,000  Level Memphis Center
05:15PM 34.8306 -88.8267 306° West 284 327 40,000  Level Memphis Center
05:16PM 34.8769 -88.9042 306° West 285 328 40,000  Level Memphis Center
05:17PM 34.9447 -88.9908 314° West 295 339 40,000 48 Level Memphis Center
05:18PM 35.0075 -89.0600 318° Northwest 303 349 40,100  Climbing Memphis Center
05:19PM 35.0919 -89.1019 338° Northwest 325 374 40,000 -48 Descending Memphis Center
05:20PM 35.1769 -89.1389 340° North 330 380 40,000  Level Memphis Center
05:21PM 35.2625 -89.1761 340° North 327 376 40,000  Level Memphis Center
05:22PM 35.3653 -89.2217 340° North 326 375 40,000  Level Memphis Center
05:23PM 35.4525 -89.2569 342° North 328 377 40,000  Level Memphis Center
05:24PM 35.5394 -89.2922 342° North 329 379 40,000  Level Memphis Center
05:25PM 35.6269 -89.3283 341° North 329 379 40,000  Level Memphis Center
05:26PM 35.7153 -89.3661 341° North 333 383 40,000  Level Memphis Center
05:27PM 35.8022 -89.4014 342° North 331 381 40,000  Level Memphis Center
05:28PM 35.8767 -89.4708 323° Northwest 290 334 40,000  Level Memphis Center
05:29PM 35.9006 -89.5500 290° West 262 302 40,000  Level Memphis Center
05:31PM 35.9308 -89.6275 296° West 250 288 40,000  Level Memphis Center
05:32PM 35.9633 -89.7053 297° West 252 290 40,000  Level Memphis Center
05:33PM 35.9947 -89.7842 296° West 254 292 40,000  Level Memphis Center
05:34PM 36.0275 -89.8644 297° West 258 297 40,000  Level Memphis Center
05:35PM 36.0600 -89.9444 297° West 260 299 40,000  Level Memphis Center
05:36PM 36.0917 -90.0264 296° West 262 302 40,000  Level Memphis Center
05:37PM 36.1328 -90.1258 297° West 267 307 40,000  Level Memphis Center
05:38PM 36.1669 -90.2094 297° West 270 311 40,000  Level Memphis Center
05:39PM 36.2000 -90.2942 296° West 272 313 40,000  Level Memphis Center
05:40PM 36.2339 -90.3781 297° West 272 313 40,000  Level Memphis Center
05:41PM 36.2678 -90.4633 296° West 274 315 40,000  Level Memphis Center
05:42PM 36.3019 -90.5514 296° West 280 322 40,000  Level Memphis Center
05:43PM 36.3369 -90.6383 297° West 281 323 40,000  Level Memphis Center
05:44PM 36.3789 -90.7442 296° West 283 326 40,000  Level Memphis Center
05:45PM 36.4131 -90.8325 296° West 284 327 40,000  Level Memphis Center
05:46PM 36.4458 -90.9203 295° West 282 325 40,000  Level Memphis Center
05:47PM 36.4811 -91.0089 296° West 283 326 40,000  Level Memphis Center
05:48PM 36.5206 -91.1083 296° West 284 327 40,000  Level Memphis Center
05:49PM 36.5550 -91.1961 296° West 281 323 40,000 -242 Level Memphis Center
05:50PM 36.5903 -91.2831 297° West 281 323 39,500 -732 Descending Memphis Center
05:51PM 36.6275 -91.3808 295° West 301 346 38,500 -970 Descending Memphis Center
05:52PM 36.6503 -91.4450 294° West 317 365 37,900 -1,020 Descending Kansas City Center
05:53PM 36.6894 -91.5456 296° West 325 374 36,800 -960 Descending Kansas City Center
05:54PM 36.7278 -91.6467 295° West 321 369 35,900 -919 Descending Kansas City Center
05:55PM 36.7678 -91.7508 296° West 326 375 34,900 -912 Descending Kansas City Center
05:56PM 36.8161 -91.8819 295° West 338 389 34,000 -432 Descending Kansas City Center
05:57PM 36.8558 -91.9872 295° West 338 389 34,000  Level Kansas City Center
05:58PM 36.8936 -92.0900 295° West 335 386 34,000  Level Kansas City Center
05:59PM 36.9314 -92.1867 296° West 322 371 34,000  Level Kansas City Center
06:00PM 36.9747 -92.2811 300° West 322 371 34,000  Level Kansas City Center
06:01PM 37.0428 -92.3672 315° West 343 395 34,000  Level Kansas City Center
06:02PM 37.1103 -92.4536 314° West 343 395 34,000  Level Kansas City Center
06:03PM 37.1772 -92.5375 315° West 343 395 34,000  Level Kansas City Center
06:04PM 37.2550 -92.6383 314° West 340 391 34,000  Level Kansas City Center
06:05PM 37.3211 -92.7217 315° West 338 389 34,000  Level Kansas City Center
06:06PM 37.3892 -92.8078 315° West 331 381 34,000  Level Kansas City Center
06:07PM 37.4489 -92.8850 314° West 330 380 34,000  Level Kansas City Center
06:08PM 37.5139 -92.9689 314° West 330 380 34,000  Level Kansas City Center
06:09PM 37.5772 -93.0506 314° West 329 379 34,000  Level Kansas City Center
06:10PM 37.6406 -93.1342 314° West 328 377 34,000 -288 Level Kansas City Center
06:11PM 37.7053 -93.2178 314° West 328 377 33,400 -934 Descending Kansas City Center
06:12PM 37.7869 -93.3228 315° West 342 394 32,100 -1,161 Descending Kansas City Center
06:14PM 37.8553 -93.4125 314° West 347 399 31,000 -1,228 Descending Kansas City Center
06:15PM 37.9219 -93.5000 314° West 347 399 29,500 -1,632 Descending Kansas City Center
06:16PM 37.9914 -93.5903 314° West 351 404 27,600 -1,983 Descending Kansas City Center
06:17PM 38.0589 -93.6783 314° West 351 404 25,500 -2,064 Descending Kansas City Center
06:18PM 38.1217 -93.7617 314° West 332 382 23,300 -2,064 Descending Kansas City Center
06:19PM 38.2106 -93.8147 335° Northwest 350 403 21,200 -2,083 Descending Kansas City Center
06:20PM 38.3025 -93.8636 337° Northwest 356 410 19,100 -2,304 Descending Kansas City Center
06:21PM 38.4003 -93.9178 337° Northwest 327 376 16,400 -2,352 Descending Kansas City Center
06:22PM 38.4736 -93.9619 335° Northwest 302 348 14,200 -2,177 Descending Kansas City Center
06:23PM 38.5519 -94.0078 335° Northwest 293 337 11,900 -1,548 Descending Kansas City Center
06:24PM 38.6144 -94.0419 337° Northwest 256 295 11,000 -919 Descending Kansas City Center
06:25PM 38.6750 -94.0778 335° Northwest 252 290 10,000 -484 Descending Kansas City Center
06:26PM 38.7350 -94.1369 322° Northwest 248 285 10,000  Level Kansas City Center
06:27PM 38.7828 -94.1914 318° Northwest 243 280 10,000 -240 Level Kansas City Center
06:28PM 38.8414 -94.2539 320° Northwest 244 281 9,500 -720 Descending Kansas City Center
06:29PM 38.8883 -94.3031 321° Northwest 230 265 8,500 -1,008 Descending Kansas City Center
06:30PM 38.9394 -94.3603 319° Northwest 222 255 7,400 -1,180 Descending Kansas City Center
06:31PM 38.9847 -94.4075 321° Northwest 221 254 6,100 -1,440 Descending Kansas City Center
06:32PM 39.0367 -94.4661 319° Northwest 221 254 4,400 -1,500 Descending Kansas City Center
06:33PM 39.0842 -94.4989 332° Northwest 206 237 3,000 -793 Descending Kansas City Center
06:34PM 39.1308 -94.5289 333° Northwest 169 194 2,800 -480 Descending Kansas City Center
06:35PM 39.1597 -94.5522 328° Northwest 131 151 2,000 -768 Descending Kansas City Center
06:36PM 39.1461 -94.5861 243° Southwest 114 131 1,200 -787 Descending Kansas City Center
06:38PM 39.1167 -94.5833 165° South  Level FlightAware Approximate
06:45PM 39.1229 -94.5928 165° South  Level Estimated